Meera — V2FD7 — position and weather

sailwx.info

Track history (hours):
 
Tides and Currents Weather Stations Pressure Air Temp Water Temp Dewpoint Dewpoint Depression Visibility Wind Speed Wind Dir Waves Ship Positions

Meera

Last reported at 2017-Dec-11 15:01 UTC. Time now 2017-Dec-12 21:57 UTC.
Position N 54°41' E 012°34'.

Length 140 m; draft 7.8 m.

Type: Ship (hazmat cat A). MMSI: 305643000.

Date/timePositionNaut miles runAvg speedWind from/ knotsBaromVisibWave heightAir tempDewpointWater temp
2017-Dec-11 15:01N 54°41' E 012°34'017.1
2017-Dec-11 15:00N 54°41' E 012°34'816.4
2017-Dec-11 14:30N 54°36' E 012°22'2114.1
2017-Dec-11 13:02N 54°24' E 011°53'315.9
2017-Dec-11 12:51N 54°24' E 011°48'616.0
2017-Dec-11 12:30N 54°26' E 011°39'815.8
2017-Dec-11 12:00N 54°29' E 011°27'815.9
2017-Dec-11 11:30N 54°33' E 011°14'714.8
2017-Dec-11 11:00N 54°35' E 011°02'815.7
2017-Dec-11 10:30N 54°34' E 010°49'815.9
2017-Dec-11 10:00N 54°33' E 010°35'24 8.1
2017-Dec-11 07:02N 54°21' E 009°60'1 7.0
2017-Dec-11 06:56N 54°21' E 009°58'3 7.6
2017-Dec-11 06:30N 54°21' E 009°53'3 6.8
2017-Dec-11 06:00N 54°22' E 009°47'4 8.1
2017-Dec-11 05:30N 54°18' E 009°43'4 7.2
2017-Dec-11 05:00N 54°16' E 009°38'1 1.8
2017-Dec-11 04:30N 54°15' E 009°37'3 5.5
2017-Dec-11 04:00N 54°13' E 009°35'4 7.7
2017-Dec-11 03:30N 54°11' E 009°29'4 8.2
2017-Dec-11 03:00N 54°09' E 009°23'4 5.9
2017-Dec-11 02:24N 54°06' E 009°20'3 7.5
2017-Dec-11 02:00N 54°04' E 009°19'1 2.4
2017-Dec-11 01:30N 54°02' E 009°18'3 5.6
2017-Dec-11 01:00N 53°60' E 009°17'3 6.7
2017-Dec-11 00:30N 53°57' E 009°14'3 6.5
2017-Dec-11 00:00N 53°54' E 009°10'1 2.4
2017-Dec-10 23:28N 53°54' E 009°09'1 1.5
2017-Dec-10 23:00N 53°53' E 009°08'4 7.9
2017-Dec-10 22:30N 53°53' E 009°15'917.6
2017-Dec-10 22:00N 53°46' E 009°24'816.3
2017-Dec-10 21:30N 53°39' E 009°31'714.5
2017-Dec-10 21:00N 53°34' E 009°40'510.1
2017-Dec-10 20:31N 53°33' E 009°49'4 7.6
2017-Dec-10 20:00N 53°32' E 009°55'1 1.1
2017-Dec-10 19:29N 53°32' E 009°55'0 0.0
2017-Dec-10 18:59N 53°32' E 009°56'0 0.0
2017-Dec-10 18:29N 53°32' E 009°55'0 0.0
2017-Dec-10 17:59N 53°32' E 009°55'0 0.0
2017-Dec-10 17:29N 53°32' E 009°55'0 0.0
2017-Dec-10 16:59N 53°32' E 009°56'0 0.0
2017-Dec-10 16:29N 53°32' E 009°56'0 0.0
2017-Dec-10 15:59N 53°32' E 009°56'0 0.0
2017-Dec-10 15:29N 53°32' E 009°56'0 0.0
2017-Dec-10 14:58N 53°32' E 009°56'0 0.0
2017-Dec-10 14:28N 53°32' E 009°56'0 0.0
2017-Dec-10 13:58N 53°32' E 009°56'0 0.0
2017-Dec-10 13:28N 53°32' E 009°56'0 0.0
2017-Dec-10 12:58N 53°32' E 009°56'0 0.0
2017-Dec-10 12:28N 53°32' E 009°56'0 0.0
2017-Dec-10 11:58N 53°32' E 009°56'0 0.0
2017-Dec-10 11:28N 53°32' E 009°56'0 0.0
2017-Dec-10 10:58N 53°32' E 009°56'0 0.0
2017-Dec-10 10:28N 53°32' E 009°56'0 0.0
2017-Dec-10 09:58N 53°32' E 009°56'0 0.0
2017-Dec-10 09:28N 53°32' E 009°56'0 0.0
2017-Dec-10 08:58N 53°32' E 009°56'0 0.0
2017-Dec-10 08:28N 53°32' E 009°55'0 0.0
2017-Dec-10 07:58N 53°32' E 009°55'0 0.0
2017-Dec-10 07:28N 53°32' E 009°55'0 0.0
2017-Dec-10 06:58N 53°32' E 009°55'0 0.0
2017-Dec-10 06:28N 53°32' E 009°56'0 0.0
2017-Dec-10 05:58N 53°32' E 009°56'0 0.9
2017-Dec-10 05:30N 53°32' E 009°55'1 2.7
2017-Dec-10 05:00N 53°32' E 009°57'1 1.4
2017-Dec-10 04:30N 53°32' E 009°57'0 0.0
2017-Dec-10 04:00N 53°32' E 009°57'0 0.0
2017-Dec-10 03:30N 53°32' E 009°57'0 0.0
2017-Dec-10 03:00N 53°32' E 009°57'0 0.0
2017-Dec-10 02:30N 53°32' E 009°57'0 0.0
2017-Dec-10 02:00N 53°32' E 009°57'0 0.0
2017-Dec-10 01:30N 53°32' E 009°57'0 0.0
2017-Dec-10 01:00N 53°32' E 009°57'0 0.0
2017-Dec-10 00:30N 53°32' E 009°57'0 0.0
2017-Dec-10 00:00N 53°32' E 009°57'0 0.0
2017-Dec-09 23:30N 53°32' E 009°57'0 0.0
2017-Dec-09 23:00N 53°32' E 009°57'0 0.0
2017-Dec-09 22:30N 53°32' E 009°57'0 0.0
2017-Dec-09 22:00N 53°32' E 009°57'0 0.0
2017-Dec-09 21:30N 53°32' E 009°57'0 0.0
2017-Dec-09 21:00N 53°32' E 009°57'0 0.0
2017-Dec-09 20:27N 53°32' E 009°57'0 0.0
2017-Dec-09 20:00N 53°32' E 009°57'0 0.0
2017-Dec-09 19:30N 53°32' E 009°57'0 0.0
2017-Dec-09 19:00N 53°32' E 009°57'0 0.0
2017-Dec-09 18:30N 53°32' E 009°57'0 0.0
2017-Dec-09 18:00N 53°32' E 009°57'0 0.0
2017-Dec-09 17:30N 53°32' E 009°57'0 0.0
2017-Dec-09 17:00N 53°32' E 009°57'0 0.0
2017-Dec-09 16:30N 53°32' E 009°57'0 0.0
2017-Dec-09 16:00N 53°32' E 009°57'0 0.0
2017-Dec-09 15:30N 53°32' E 009°57'0 0.0
2017-Dec-09 15:00N 53°32' E 009°57'0 0.0
2017-Dec-09 14:30N 53°32' E 009°57'0 0.0
2017-Dec-09 14:00N 53°32' E 009°57'0 0.0
2017-Dec-09 13:30N 53°32' E 009°57'0 0.0
2017-Dec-09 13:00N 53°32' E 009°57'0 0.0
2017-Dec-09 12:30N 53°32' E 009°57'0 0.0
2017-Dec-09 12:00N 53°32' E 009°57'0 0.0
2017-Dec-09 11:30N 53°32' E 009°57'0 0.0
2017-Dec-09 11:00N 53°32' E 009°57'0 0.0
2017-Dec-09 10:30N 53°32' E 009°57'0 0.0
2017-Dec-09 10:00N 53°32' E 009°57'0 0.0
2017-Dec-09 09:30N 53°32' E 009°57'0 0.0
2017-Dec-09 09:00N 53°32' E 009°57'0 0.0
2017-Dec-09 08:30N 53°32' E 009°57'0 0.0
2017-Dec-09 08:00N 53°32' E 009°57'0 0.0
2017-Dec-09 07:30N 53°32' E 009°57'0 0.0
2017-Dec-09 07:00N 53°32' E 009°57'0 0.0
2017-Dec-09 06:30N 53°32' E 009°57'0 0.0
2017-Dec-09 05:57N 53°32' E 009°57'0 0.0
2017-Dec-09 05:30N 53°32' E 009°57'0 0.0
2017-Dec-09 05:00N 53°32' E 009°57'0 0.0
2017-Dec-09 04:30N 53°32' E 009°57'0 0.0
2017-Dec-09 04:00N 53°32' E 009°57'0 0.0
2017-Dec-09 03:30N 53°32' E 009°57'0 0.0
2017-Dec-09 03:00N 53°32' E 009°57'0 0.0
2017-Dec-09 02:30N 53°32' E 009°57'1 2.3
2017-Dec-09 02:00N 53°31' E 009°56'0 0.6
2017-Dec-09 01:29N 53°30' E 009°56'0 0.0
2017-Dec-09 00:59N 53°30' E 009°56'0 0.0
2017-Dec-09 00:29N 53°30' E 009°56'0 0.0
2017-Dec-08 23:59N 53°30' E 009°56'0 0.0
2017-Dec-08 23:29N 53°30' E 009°56'0 0.0
2017-Dec-08 22:59N 53°30' E 009°56'0 0.0
2017-Dec-08 22:29N 53°30' E 009°56'0 0.0
2017-Dec-08 21:59N 53°30' E 009°56'0 0.0
2017-Dec-08 21:29N 53°30' E 009°56'0 0.0
2017-Dec-08 20:59N 53°30' E 009°56'0 0.0
2017-Dec-08 20:29N 53°30' E 009°56'0 0.0
2017-Dec-08 19:59N 53°30' E 009°56'0 0.0
2017-Dec-08 19:29N 53°30' E 009°56'0 0.0
2017-Dec-08 18:59N 53°30' E 009°56'0 0.0
2017-Dec-08 18:29N 53°30' E 009°56'0 0.0
2017-Dec-08 17:59N 53°30' E 009°56'0 0.1
2017-Dec-08 17:31N 53°30' E 009°56'2 4.4
2017-Dec-08 17:01N 53°32' E 009°55'0 0.2
2017-Dec-08 16:30N 53°32' E 009°55'0 0.0
2017-Dec-08 16:00N 53°32' E 009°55'0 0.0
2017-Dec-08 15:30N 53°32' E 009°55'0 0.0
2017-Dec-08 15:00N 53°32' E 009°55'0 0.0
2017-Dec-08 14:30N 53°32' E 009°55'0 0.0
2017-Dec-08 14:00N 53°32' E 009°55'0 0.0
2017-Dec-08 13:30N 53°32' E 009°55'0 0.0
2017-Dec-08 13:00N 53°32' E 009°55'0 0.0
2017-Dec-08 12:30N 53°32' E 009°55'0 0.0
2017-Dec-08 12:00N 53°32' E 009°55'0 0.0
2017-Dec-08 11:30N 53°32' E 009°55'0 0.0
2017-Dec-08 11:00N 53°32' E 009°55'0 0.0
2017-Dec-08 10:30N 53°32' E 009°55'0 0.0
2017-Dec-08 10:00N 53°32' E 009°55'0 0.0
2017-Dec-08 09:30N 53°32' E 009°55'0 0.0
2017-Dec-08 09:00N 53°32' E 009°55'0 0.0
2017-Dec-08 08:30N 53°32' E 009°55'0 0.0
2017-Dec-08 08:00N 53°32' E 009°55'0 0.0
2017-Dec-08 07:30N 53°32' E 009°55'0 0.0
2017-Dec-08 07:00N 53°32' E 009°55'0 0.0
2017-Dec-08 06:30N 53°32' E 009°55'0 0.0
2017-Dec-08 06:00N 53°32' E 009°55'0 0.0
2017-Dec-08 05:30N 53°32' E 009°55'0 0.0
2017-Dec-08 05:00N 53°32' E 009°55'0 0.0
2017-Dec-08 04:30N 53°32' E 009°55'0 0.0
2017-Dec-08 04:01N 53°32' E 009°55'1 2.8
2017-Dec-08 03:29N 53°32' E 009°57'0 0.0
2017-Dec-08 02:59N 53°32' E 009°57'0 0.0
2017-Dec-08 02:30N 53°32' E 009°57'0 0.6
2017-Dec-08 02:00N 53°32' E 009°57'5 9.1
2017-Dec-08 01:30N 53°33' E 009°50'713.2
2017-Dec-08 01:01N 53°34' E 009°39'714.0
2017-Dec-08 00:30N 53°40' E 009°31'713.8
2017-Dec-08 00:00N 53°45' E 009°24'713.7
2017-Dec-07 23:30N 53°51' E 009°19'612.9
2017-Dec-07 23:01N 53°53' E 009°08'1 1.7
2017-Dec-07 22:30N 53°54' E 009°09'1 1.8
2017-Dec-07 22:00N 53°54' E 009°10'3 5.4
2017-Dec-07 21:30N 53°56' E 009°13'4 8.3
2017-Dec-07 21:00N 53°60' E 009°17'3 5.8
2017-Dec-07 20:30N 54°02' E 009°18'2 3.5
2017-Dec-07 20:01N 54°04' E 009°19'3 6.9
2017-Dec-07 19:31N 54°08' E 009°20'2 3.8
2017-Dec-07 19:00N 54°09' E 009°22'3 6.3
2017-Dec-07 18:30N 54°10' E 009°27'4 8.0
2017-Dec-07 18:01N 54°12' E 009°33'4 7.2
2017-Dec-07 17:31N 54°15' E 009°37'4 7.3
2017-Dec-07 17:00N 54°18' E 009°41'3 5.0
2017-Dec-07 16:30N 54°20' E 009°43'1 3.0
2017-Dec-07 16:00N 54°21' E 009°45'4 7.1
2017-Dec-07 15:30N 54°22' E 009°51'17 4.8
2017-Dec-07 11:56N 54°30' E 010°17'511.5
2017-Dec-07 11:30N 54°32' E 010°24'714.5
2017-Dec-07 11:00N 54°35' E 010°36'714.7
2017-Dec-07 10:30N 54°36' E 010°48'714.7
2017-Dec-07 10:00N 54°36' E 011°01'714.2
2017-Dec-07 09:30N 54°36' E 011°13'714.2
2017-Dec-07 09:00N 54°33' E 011°24'714.6
2017-Dec-07 08:30N 54°30' E 011°35'714.6
2017-Dec-07 08:00N 54°26' E 011°46'713.8
2017-Dec-07 07:31N 54°26' E 011°58'812.4
2017-Dec-07 06:54N 54°29' E 012°11'3013.5
2017-Dec-07 04:40N 54°49' E 012°50'214.7
2017-Dec-07 04:30N 54°49' E 012°54'814.8
2017-Dec-07 03:59N 54°52' E 013°06'714.8
2017-Dec-07 03:29N 54°54' E 013°19'714.6
2017-Dec-07 03:00N 54°56' E 013°30'714.6
2017-Dec-07 02:30N 54°59' E 013°42'814.6
2017-Dec-07 01:58N 55°02' E 013°54'814.4
2017-Dec-07 01:23N 55°06' E 014°07'614.7
2017-Dec-07 01:00N 55°10' E 014°14'815.1
2017-Dec-07 00:30N 55°16' E 014°22'914.9
2017-Dec-06 23:56N 55°23' E 014°31'914.8
2017-Dec-06 23:21N 55°29' E 014°43'514.7
2017-Dec-06 23:00N 55°31' E 014°51'815.1
2017-Dec-06 22:30N 55°34' E 015°02'815.1
2017-Dec-06 22:00N 55°38' E 015°14'714.9
2017-Dec-06 21:30N 55°42' E 015°25'714.9
2017-Dec-06 21:00N 55°46' E 015°37'  
2017-Dec-04 10:30N 59°29' E 024°58'0 0.0
2017-Dec-04 10:00N 59°29' E 024°58'0 0.0
2017-Dec-04 09:30N 59°29' E 024°58'0 0.0
2017-Dec-04 09:00N 59°29' E 024°58'0 0.0
2017-Dec-04 08:30N 59°29' E 024°58'0 0.0
2017-Dec-04 08:00N 59°29' E 024°58'0 0.0
2017-Dec-04 07:30N 59°29' E 024°58'0 0.0
2017-Dec-04 07:00N 59°29' E 024°58'0 0.0
2017-Dec-04 06:30N 59°29' E 024°58'0 0.0
2017-Dec-04 06:00N 59°29' E 024°58'0 0.0
2017-Dec-04 05:30N 59°29' E 024°58'0 0.0
2017-Dec-04 05:00N 59°29' E 024°58'0 0.2
2017-Dec-04 04:30N 59°30' E 024°58'5 9.9
2017-Dec-04 04:00N 59°34' E 024°54'3 5.1
2017-Dec-04 03:30N 59°35' E 024°49'0 0.1
2017-Dec-04 03:00N 59°35' E 024°49'0 0.0
2017-Dec-04 02:30N 59°35' E 024°49'0 0.0
2017-Dec-04 02:00N 59°35' E 024°49'0 0.3
2017-Dec-04 01:30N 59°35' E 024°49'0 0.1
2017-Dec-04 01:00N 59°35' E 024°49'0 0.0
2017-Dec-04 00:30N 59°35' E 024°49'0 0.1
2017-Dec-04 00:00N 59°35' E 024°49'0 0.1
2017-Dec-03 23:30N 59°35' E 024°49'0 0.1
2017-Dec-03 23:00N 59°35' E 024°49'0 0.1
2017-Dec-03 22:30N 59°35' E 024°49'0 0.0
2017-Dec-03 22:00N 59°35' E 024°49'0 0.0
2017-Dec-03 21:30N 59°35' E 024°49'0 0.0
2017-Dec-03 21:00N 59°35' E 024°49'0 0.0
2017-Dec-03 20:30N 59°35' E 024°49'0 0.0
2017-Dec-03 20:00N 59°35' E 024°49'0 0.0
2017-Dec-03 19:30N 59°35' E 024°49'0 0.0
2017-Dec-03 19:00N 59°35' E 024°49'0 0.0
2017-Dec-03 18:30N 59°35' E 024°49'0 0.0
2017-Dec-03 18:00N 59°35' E 024°49'0 0.0
2017-Dec-03 17:30N 59°35' E 024°49'0 0.0
2017-Dec-03 17:00N 59°35' E 024°49'0 0.0
2017-Dec-03 16:30N 59°35' E 024°49'0 0.0
2017-Dec-03 16:00N 59°35' E 024°49'0 0.0
2017-Dec-03 15:30N 59°35' E 024°49'0 0.0
2017-Dec-03 15:00N 59°35' E 024°49'0 0.0
2017-Dec-03 14:30N 59°35' E 024°49'0 0.0
2017-Dec-03 14:00N 59°35' E 024°49'0 0.0
2017-Dec-03 13:30N 59°35' E 024°49'0 0.0
2017-Dec-03 13:00N 59°35' E 024°49'0 0.0
2017-Dec-03 12:30N 59°35' E 024°49'0 0.0
2017-Dec-03 12:00N 59°35' E 024°49'0 0.0
2017-Dec-03 11:30N 59°35' E 024°49'0 0.0
2017-Dec-03 11:00N 59°35' E 024°49'0 0.0
2017-Dec-03 10:30N 59°35' E 024°49'0 0.0
2017-Dec-03 10:00N 59°35' E 024°49'0 0.0
2017-Dec-03 09:30N 59°35' E 024°49'0 0.0
2017-Dec-03 09:00N 59°35' E 024°49'0 0.0
2017-Dec-03 08:30N 59°35' E 024°49'0 0.0
2017-Dec-03 08:00N 59°35' E 024°49'0 0.0
2017-Dec-03 07:30N 59°35' E 024°49'0 0.0
2017-Dec-03 07:00N 59°35' E 024°49'0 0.0
2017-Dec-03 06:30N 59°35' E 024°49'0 0.0
2017-Dec-03 06:00N 59°35' E 024°49'0 0.0
2017-Dec-03 05:30N 59°35' E 024°49'0 0.0
2017-Dec-03 05:00N 59°35' E 024°49'0 0.0
2017-Dec-03 04:30N 59°35' E 024°49'0 0.0
2017-Dec-03 04:00N 59°35' E 024°49'0 0.0
2017-Dec-03 03:30N 59°35' E 024°49'0 0.0
2017-Dec-03 03:00N 59°35' E 024°49'0 0.0
2017-Dec-03 02:30N 59°35' E 024°49'0 0.0
2017-Dec-03 02:00N 59°35' E 024°49'0 0.0
2017-Dec-03 01:30N 59°35' E 024°49'0 0.0
2017-Dec-03 01:00N 59°35' E 024°49'0 0.0
2017-Dec-03 00:30N 59°35' E 024°49'0 0.0
2017-Dec-03 00:00N 59°35' E 024°49'0 0.0
2017-Dec-02 23:30N 59°35' E 024°49'0 0.0
2017-Dec-02 23:00N 59°35' E 024°49'0 0.0
2017-Dec-02 22:30N 59°35' E 024°49'0 0.0
2017-Dec-02 22:00N 59°35' E 024°49'0 0.0
2017-Dec-02 21:30N 59°35' E 024°49'0 0.1
2017-Dec-02 21:00N 59°35' E 024°49'0 0.0
2017-Dec-02 20:30N 59°35' E 024°49'0 0.1
2017-Dec-02 20:00N 59°35' E 024°49'0 0.0
2017-Dec-02 19:30N 59°35' E 024°49'0 0.0
2017-Dec-02 19:00N 59°35' E 024°49'0 0.0
2017-Dec-02 18:27N 59°35' E 024°49'0 0.0
2017-Dec-02 18:00N 59°35' E 024°49'0 0.0
2017-Dec-02 17:30N 59°35' E 024°49'0 0.0
2017-Dec-02 17:00N 59°35' E 024°49'0 0.1
2017-Dec-02 16:30N 59°35' E 024°49'0 0.0
2017-Dec-02 16:00N 59°35' E 024°49'0 0.0
2017-Dec-02 15:30N 59°35' E 024°49'0 0.0
2017-Dec-02 15:00N 59°35' E 024°49'0 0.0
2017-Dec-02 14:30N 59°35' E 024°49'0 0.1
2017-Dec-02 14:00N 59°35' E 024°49'0 0.0
2017-Dec-02 13:30N 59°35' E 024°49'0 0.0
2017-Dec-02 13:00N 59°35' E 024°49'0 0.0
2017-Dec-02 12:27N 59°35' E 024°49'0 0.0
2017-Dec-02 12:00N 59°35' E 024°49'0 0.2
2017-Dec-02 11:30N 59°35' E 024°49'0 0.1
2017-Dec-02 11:00N 59°35' E 024°49'0 0.0
2017-Dec-02 10:30N 59°35' E 024°49'1 1.2
2017-Dec-02 10:01N 59°35' E 024°50'713.2
2017-Dec-02 09:31N 59°37' E 024°38'816.1
2017-Dec-02 09:01N 59°39' E 024°23'816.5
2017-Dec-02 08:30N 59°39' E 024°06'816.3
2017-Dec-02 08:00N 59°37' E 023°50'917.5
2017-Dec-02 07:30N 59°35' E 023°34'916.9
2017-Dec-02 07:00N 59°32' E 023°18'816.0
2017-Dec-02 06:30N 59°29' E 023°03'  
Track history (hours):
 
Tides and Currents Weather Stations Pressure Air Temp Water Temp Dewpoint Dewpoint Depression Visibility Wind Speed Wind Dir Waves Ship Positions

Meera

Last reported at 2017-Dec-11 15:01 UTC. Time now 2017-Dec-12 21:57 UTC.
Position N 54°41' E 012°34'.

Length 140 m; draft 7.8 m.

Type: Ship (hazmat cat A). MMSI: 305643000.

Date/timePositionNaut miles runAvg speedWind from/ knotsBaromVisibWave heightAir tempDewpointWater temp
2017-Dec-11 15:01N 54°41' E 012°34'017.1
2017-Dec-11 15:00N 54°41' E 012°34'816.4
2017-Dec-11 14:30N 54°36' E 012°22'2114.1
2017-Dec-11 13:02N 54°24' E 011°53'315.9
2017-Dec-11 12:51N 54°24' E 011°48'616.0
2017-Dec-11 12:30N 54°26' E 011°39'815.8
2017-Dec-11 12:00N 54°29' E 011°27'815.9
2017-Dec-11 11:30N 54°33' E 011°14'714.8
2017-Dec-11 11:00N 54°35' E 011°02'815.7
2017-Dec-11 10:30N 54°34' E 010°49'815.9
2017-Dec-11 10:00N 54°33' E 010°35'24 8.1
2017-Dec-11 07:02N 54°21' E 009°60'1 7.0
2017-Dec-11 06:56N 54°21' E 009°58'3 7.6
2017-Dec-11 06:30N 54°21' E 009°53'3 6.8
2017-Dec-11 06:00N 54°22' E 009°47'4 8.1
2017-Dec-11 05:30N 54°18' E 009°43'4 7.2
2017-Dec-11 05:00N 54°16' E 009°38'1 1.8
2017-Dec-11 04:30N 54°15' E 009°37'3 5.5
2017-Dec-11 04:00N 54°13' E 009°35'4 7.7
2017-Dec-11 03:30N 54°11' E 009°29'4 8.2
2017-Dec-11 03:00N 54°09' E 009°23'4 5.9
2017-Dec-11 02:24N 54°06' E 009°20'3 7.5
2017-Dec-11 02:00N 54°04' E 009°19'1 2.4
2017-Dec-11 01:30N 54°02' E 009°18'3 5.6
2017-Dec-11 01:00N 53°60' E 009°17'3 6.7
2017-Dec-11 00:30N 53°57' E 009°14'3 6.5
2017-Dec-11 00:00N 53°54' E 009°10'1 2.4
2017-Dec-10 23:28N 53°54' E 009°09'1 1.5
2017-Dec-10 23:00N 53°53' E 009°08'4 7.9
2017-Dec-10 22:30N 53°53' E 009°15'917.6
2017-Dec-10 22:00N 53°46' E 009°24'816.3
2017-Dec-10 21:30N 53°39' E 009°31'714.5
2017-Dec-10 21:00N 53°34' E 009°40'510.1
2017-Dec-10 20:31N 53°33' E 009°49'4 7.6
2017-Dec-10 20:00N 53°32' E 009°55'1 1.1
2017-Dec-10 19:29N 53°32' E 009°55'0 0.0
2017-Dec-10 18:59N 53°32' E 009°56'0 0.0
2017-Dec-10 18:29N 53°32' E 009°55'0 0.0
2017-Dec-10 17:59N 53°32' E 009°55'0 0.0
2017-Dec-10 17:29N 53°32' E 009°55'0 0.0
2017-Dec-10 16:59N 53°32' E 009°56'0 0.0
2017-Dec-10 16:29N 53°32' E 009°56'0 0.0
2017-Dec-10 15:59N 53°32' E 009°56'0 0.0
2017-Dec-10 15:29N 53°32' E 009°56'0 0.0
2017-Dec-10 14:58N 53°32' E 009°56'0 0.0
2017-Dec-10 14:28N 53°32' E 009°56'0 0.0
2017-Dec-10 13:58N 53°32' E 009°56'0 0.0
2017-Dec-10 13:28N 53°32' E 009°56'0 0.0
2017-Dec-10 12:58N 53°32' E 009°56'0 0.0
2017-Dec-10 12:28N 53°32' E 009°56'0 0.0
2017-Dec-10 11:58N 53°32' E 009°56'0 0.0
2017-Dec-10 11:28N 53°32' E 009°56'0 0.0
2017-Dec-10 10:58N 53°32' E 009°56'0 0.0
2017-Dec-10 10:28N 53°32' E 009°56'0 0.0
2017-Dec-10 09:58N 53°32' E 009°56'0 0.0
2017-Dec-10 09:28N 53°32' E 009°56'0 0.0
2017-Dec-10 08:58N 53°32' E 009°56'0 0.0
2017-Dec-10 08:28N 53°32' E 009°55'0 0.0
2017-Dec-10 07:58N 53°32' E 009°55'0 0.0
2017-Dec-10 07:28N 53°32' E 009°55'0 0.0
2017-Dec-10 06:58N 53°32' E 009°55'0 0.0
2017-Dec-10 06:28N 53°32' E 009°56'0 0.0
2017-Dec-10 05:58N 53°32' E 009°56'0 0.9
2017-Dec-10 05:30N 53°32' E 009°55'1 2.7
2017-Dec-10 05:00N 53°32' E 009°57'1 1.4
2017-Dec-10 04:30N 53°32' E 009°57'0 0.0
2017-Dec-10 04:00N 53°32' E 009°57'0 0.0
2017-Dec-10 03:30N 53°32' E 009°57'0 0.0
2017-Dec-10 03:00N 53°32' E 009°57'0 0.0
2017-Dec-10 02:30N 53°32' E 009°57'0 0.0
2017-Dec-10 02:00N 53°32' E 009°57'0 0.0
2017-Dec-10 01:30N 53°32' E 009°57'0 0.0
2017-Dec-10 01:00N 53°32' E 009°57'0 0.0
2017-Dec-10 00:30N 53°32' E 009°57'0 0.0
2017-Dec-10 00:00N 53°32' E 009°57'0 0.0
2017-Dec-09 23:30N 53°32' E 009°57'0 0.0
2017-Dec-09 23:00N 53°32' E 009°57'0 0.0
2017-Dec-09 22:30N 53°32' E 009°57'0 0.0
2017-Dec-09 22:00N 53°32' E 009°57'0 0.0
2017-Dec-09 21:30N 53°32' E 009°57'0 0.0
2017-Dec-09 21:00N 53°32' E 009°57'0 0.0
2017-Dec-09 20:27N 53°32' E 009°57'0 0.0
2017-Dec-09 20:00N 53°32' E 009°57'0 0.0
2017-Dec-09 19:30N 53°32' E 009°57'0 0.0
2017-Dec-09 19:00N 53°32' E 009°57'0 0.0
2017-Dec-09 18:30N 53°32' E 009°57'0 0.0
2017-Dec-09 18:00N 53°32' E 009°57'0 0.0
2017-Dec-09 17:30N 53°32' E 009°57'0 0.0
2017-Dec-09 17:00N 53°32' E 009°57'0 0.0
2017-Dec-09 16:30N 53°32' E 009°57'0 0.0
2017-Dec-09 16:00N 53°32' E 009°57'0 0.0
2017-Dec-09 15:30N 53°32' E 009°57'0 0.0
2017-Dec-09 15:00N 53°32' E 009°57'0 0.0
2017-Dec-09 14:30N 53°32' E 009°57'0 0.0
2017-Dec-09 14:00N 53°32' E 009°57'0 0.0
2017-Dec-09 13:30N 53°32' E 009°57'0 0.0
2017-Dec-09 13:00N 53°32' E 009°57'0 0.0
2017-Dec-09 12:30N 53°32' E 009°57'0 0.0
2017-Dec-09 12:00N 53°32' E 009°57'0 0.0
2017-Dec-09 11:30N 53°32' E 009°57'0 0.0
2017-Dec-09 11:00N 53°32' E 009°57'0 0.0
2017-Dec-09 10:30N 53°32' E 009°57'0 0.0
2017-Dec-09 10:00N 53°32' E 009°57'0 0.0
2017-Dec-09 09:30N 53°32' E 009°57'0 0.0
2017-Dec-09 09:00N 53°32' E 009°57'0 0.0
2017-Dec-09 08:30N 53°32' E 009°57'0 0.0
2017-Dec-09 08:00N 53°32' E 009°57'0 0.0
2017-Dec-09 07:30N 53°32' E 009°57'0 0.0
2017-Dec-09 07:00N 53°32' E 009°57'0 0.0
2017-Dec-09 06:30N 53°32' E 009°57'0 0.0
2017-Dec-09 05:57N 53°32' E 009°57'0 0.0
2017-Dec-09 05:30N 53°32' E 009°57'0 0.0
2017-Dec-09 05:00N 53°32' E 009°57'0 0.0
2017-Dec-09 04:30N 53°32' E 009°57'0 0.0
2017-Dec-09 04:00N 53°32' E 009°57'0 0.0
2017-Dec-09 03:30N 53°32' E 009°57'0 0.0
2017-Dec-09 03:00N 53°32' E 009°57'0 0.0
2017-Dec-09 02:30N 53°32' E 009°57'1 2.3
2017-Dec-09 02:00N 53°31' E 009°56'0 0.6
2017-Dec-09 01:29N 53°30' E 009°56'0 0.0
2017-Dec-09 00:59N 53°30' E 009°56'0 0.0
2017-Dec-09 00:29N 53°30' E 009°56'0 0.0
2017-Dec-08 23:59N 53°30' E 009°56'0 0.0
2017-Dec-08 23:29N 53°30' E 009°56'0 0.0
2017-Dec-08 22:59N 53°30' E 009°56'0 0.0
2017-Dec-08 22:29N 53°30' E 009°56'0 0.0
2017-Dec-08 21:59N 53°30' E 009°56'0 0.0
2017-Dec-08 21:29N 53°30' E 009°56'0 0.0
2017-Dec-08 20:59N 53°30' E 009°56'0 0.0
2017-Dec-08 20:29N 53°30' E 009°56'0 0.0
2017-Dec-08 19:59N 53°30' E 009°56'0 0.0
2017-Dec-08 19:29N 53°30' E 009°56'0 0.0
2017-Dec-08 18:59N 53°30' E 009°56'0 0.0
2017-Dec-08 18:29N 53°30' E 009°56'0 0.0
2017-Dec-08 17:59N 53°30' E 009°56'0 0.1
2017-Dec-08 17:31N 53°30' E 009°56'2 4.4
2017-Dec-08 17:01N 53°32' E 009°55'0 0.2
2017-Dec-08 16:30N 53°32' E 009°55'0 0.0
2017-Dec-08 16:00N 53°32' E 009°55'0 0.0
2017-Dec-08 15:30N 53°32' E 009°55'0 0.0
2017-Dec-08 15:00N 53°32' E 009°55'0 0.0
2017-Dec-08 14:30N 53°32' E 009°55'0 0.0
2017-Dec-08 14:00N 53°32' E 009°55'0 0.0
2017-Dec-08 13:30N 53°32' E 009°55'0 0.0
2017-Dec-08 13:00N 53°32' E 009°55'0 0.0
2017-Dec-08 12:30N 53°32' E 009°55'0 0.0
2017-Dec-08 12:00N 53°32' E 009°55'0 0.0
2017-Dec-08 11:30N 53°32' E 009°55'0 0.0
2017-Dec-08 11:00N 53°32' E 009°55'0 0.0
2017-Dec-08 10:30N 53°32' E 009°55'0 0.0
2017-Dec-08 10:00N 53°32' E 009°55'0 0.0
2017-Dec-08 09:30N 53°32' E 009°55'0 0.0
2017-Dec-08 09:00N 53°32' E 009°55'0 0.0
2017-Dec-08 08:30N 53°32' E 009°55'0 0.0
2017-Dec-08 08:00N 53°32' E 009°55'0 0.0
2017-Dec-08 07:30N 53°32' E 009°55'0 0.0
2017-Dec-08 07:00N 53°32' E 009°55'0 0.0
2017-Dec-08 06:30N 53°32' E 009°55'0 0.0
2017-Dec-08 06:00N 53°32' E 009°55'0 0.0
2017-Dec-08 05:30N 53°32' E 009°55'0 0.0
2017-Dec-08 05:00N 53°32' E 009°55'0 0.0
2017-Dec-08 04:30N 53°32' E 009°55'0 0.0
2017-Dec-08 04:01N 53°32' E 009°55'1 2.8
2017-Dec-08 03:29N 53°32' E 009°57'0 0.0
2017-Dec-08 02:59N 53°32' E 009°57'0 0.0
2017-Dec-08 02:30N 53°32' E 009°57'0 0.6
2017-Dec-08 02:00N 53°32' E 009°57'5 9.1
2017-Dec-08 01:30N 53°33' E 009°50'713.2
2017-Dec-08 01:01N 53°34' E 009°39'714.0
2017-Dec-08 00:30N 53°40' E 009°31'713.8
2017-Dec-08 00:00N 53°45' E 009°24'713.7
2017-Dec-07 23:30N 53°51' E 009°19'612.9
2017-Dec-07 23:01N 53°53' E 009°08'1 1.7
2017-Dec-07 22:30N 53°54' E 009°09'1 1.8
2017-Dec-07 22:00N 53°54' E 009°10'3 5.4
2017-Dec-07 21:30N 53°56' E 009°13'4 8.3
2017-Dec-07 21:00N 53°60' E 009°17'3 5.8
2017-Dec-07 20:30N 54°02' E 009°18'2 3.5
2017-Dec-07 20:01N 54°04' E 009°19'3 6.9
2017-Dec-07 19:31N 54°08' E 009°20'2 3.8
2017-Dec-07 19:00N 54°09' E 009°22'3 6.3
2017-Dec-07 18:30N 54°10' E 009°27'4 8.0
2017-Dec-07 18:01N 54°12' E 009°33'4 7.2
2017-Dec-07 17:31N 54°15' E 009°37'4 7.3
2017-Dec-07 17:00N 54°18' E 009°41'3 5.0
2017-Dec-07 16:30N 54°20' E 009°43'1 3.0
2017-Dec-07 16:00N 54°21' E 009°45'4 7.1
2017-Dec-07 15:30N 54°22' E 009°51'17 4.8
2017-Dec-07 11:56N 54°30' E 010°17'511.5
2017-Dec-07 11:30N 54°32' E 010°24'714.5
2017-Dec-07 11:00N 54°35' E 010°36'714.7
2017-Dec-07 10:30N 54°36' E 010°48'714.7
2017-Dec-07 10:00N 54°36' E 011°01'714.2
2017-Dec-07 09:30N 54°36' E 011°13'714.2
2017-Dec-07 09:00N 54°33' E 011°24'714.6
2017-Dec-07 08:30N 54°30' E 011°35'714.6
2017-Dec-07 08:00N 54°26' E 011°46'713.8
2017-Dec-07 07:31N 54°26' E 011°58'812.4
2017-Dec-07 06:54N 54°29' E 012°11'3013.5
2017-Dec-07 04:40N 54°49' E 012°50'214.7
2017-Dec-07 04:30N 54°49' E 012°54'814.8
2017-Dec-07 03:59N 54°52' E 013°06'714.8
2017-Dec-07 03:29N 54°54' E 013°19'714.6
2017-Dec-07 03:00N 54°56' E 013°30'714.6
2017-Dec-07 02:30N 54°59' E 013°42'814.6
2017-Dec-07 01:58N 55°02' E 013°54'814.4
2017-Dec-07 01:23N 55°06' E 014°07'614.7
2017-Dec-07 01:00N 55°10' E 014°14'815.1
2017-Dec-07 00:30N 55°16' E 014°22'914.9
2017-Dec-06 23:56N 55°23' E 014°31'914.8
2017-Dec-06 23:21N 55°29' E 014°43'514.7
2017-Dec-06 23:00N 55°31' E 014°51'815.1
2017-Dec-06 22:30N 55°34' E 015°02'815.1
2017-Dec-06 22:00N 55°38' E 015°14'714.9
2017-Dec-06 21:30N 55°42' E 015°25'714.9
2017-Dec-06 21:00N 55°46' E 015°37'  
2017-Dec-04 10:30N 59°29' E 024°58'0 0.0
2017-Dec-04 10:00N 59°29' E 024°58'0 0.0
2017-Dec-04 09:30N 59°29' E 024°58'0 0.0
2017-Dec-04 09:00N 59°29' E 024°58'0 0.0
2017-Dec-04 08:30N 59°29' E 024°58'0 0.0
2017-Dec-04 08:00N 59°29' E 024°58'0 0.0
2017-Dec-04 07:30N 59°29' E 024°58'0 0.0
2017-Dec-04 07:00N 59°29' E 024°58'0 0.0
2017-Dec-04 06:30N 59°29' E 024°58'0 0.0
2017-Dec-04 06:00N 59°29' E 024°58'0 0.0
2017-Dec-04 05:30N 59°29' E 024°58'0 0.0
2017-Dec-04 05:00N 59°29' E 024°58'0 0.2
2017-Dec-04 04:30N 59°30' E 024°58'5 9.9
2017-Dec-04 04:00N 59°34' E 024°54'3 5.1
2017-Dec-04 03:30N 59°35' E 024°49'0 0.1
2017-Dec-04 03:00N 59°35' E 024°49'0 0.0
2017-Dec-04 02:30N 59°35' E 024°49'0 0.0
2017-Dec-04 02:00N 59°35' E 024°49'0 0.3
2017-Dec-04 01:30N 59°35' E 024°49'0 0.1
2017-Dec-04 01:00N 59°35' E 024°49'0 0.0
2017-Dec-04 00:30N 59°35' E 024°49'0 0.1
2017-Dec-04 00:00N 59°35' E 024°49'0 0.1
2017-Dec-03 23:30N 59°35' E 024°49'0 0.1
2017-Dec-03 23:00N 59°35' E 024°49'0 0.1
2017-Dec-03 22:30N 59°35' E 024°49'0 0.0
2017-Dec-03 22:00N 59°35' E 024°49'0 0.0
2017-Dec-03 21:30N 59°35' E 024°49'0 0.0
2017-Dec-03 21:00N 59°35' E 024°49'0 0.0
2017-Dec-03 20:30N 59°35' E 024°49'0 0.0
2017-Dec-03 20:00N 59°35' E 024°49'0 0.0
2017-Dec-03 19:30N 59°35' E 024°49'0 0.0
2017-Dec-03 19:00N 59°35' E 024°49'0 0.0
2017-Dec-03 18:30N 59°35' E 024°49'0 0.0
2017-Dec-03 18:00N 59°35' E 024°49'0 0.0
2017-Dec-03 17:30N 59°35' E 024°49'0 0.0
2017-Dec-03 17:00N 59°35' E 024°49'0 0.0
2017-Dec-03 16:30N 59°35' E 024°49'0 0.0
2017-Dec-03 16:00N 59°35' E 024°49'0 0.0
2017-Dec-03 15:30N 59°35' E 024°49'0 0.0
2017-Dec-03 15:00N 59°35' E 024°49'0 0.0
2017-Dec-03 14:30N 59°35' E 024°49'0 0.0
2017-Dec-03 14:00N 59°35' E 024°49'0 0.0
2017-Dec-03 13:30N 59°35' E 024°49'0 0.0
2017-Dec-03 13:00N 59°35' E 024°49'0 0.0
2017-Dec-03 12:30N 59°35' E 024°49'0 0.0
2017-Dec-03 12:00N 59°35' E 024°49'0 0.0
2017-Dec-03 11:30N 59°35' E 024°49'0 0.0
2017-Dec-03 11:00N 59°35' E 024°49'0 0.0
2017-Dec-03 10:30N 59°35' E 024°49'0 0.0
2017-Dec-03 10:00N 59°35' E 024°49'0 0.0
2017-Dec-03 09:30N 59°35' E 024°49'0 0.0
2017-Dec-03 09:00N 59°35' E 024°49'0 0.0
2017-Dec-03 08:30N 59°35' E 024°49'0 0.0
2017-Dec-03 08:00N 59°35' E 024°49'0 0.0
2017-Dec-03 07:30N 59°35' E 024°49'0 0.0
2017-Dec-03 07:00N 59°35' E 024°49'0 0.0
2017-Dec-03 06:30N 59°35' E 024°49'0 0.0
2017-Dec-03 06:00N 59°35' E 024°49'0 0.0
2017-Dec-03 05:30N 59°35' E 024°49'0 0.0
2017-Dec-03 05:00N 59°35' E 024°49'0 0.0
2017-Dec-03 04:30N 59°35' E 024°49'0 0.0
2017-Dec-03 04:00N 59°35' E 024°49'0 0.0
2017-Dec-03 03:30N 59°35' E 024°49'0 0.0
2017-Dec-03 03:00N 59°35' E 024°49'0 0.0
2017-Dec-03 02:30N 59°35' E 024°49'0 0.0
2017-Dec-03 02:00N 59°35' E 024°49'0 0.0
2017-Dec-03 01:30N 59°35' E 024°49'0 0.0
2017-Dec-03 01:00N 59°35' E 024°49'0 0.0
2017-Dec-03 00:30N 59°35' E 024°49'0 0.0
2017-Dec-03 00:00N 59°35' E 024°49'0 0.0
2017-Dec-02 23:30N 59°35' E 024°49'0 0.0
2017-Dec-02 23:00N 59°35' E 024°49'0 0.0
2017-Dec-02 22:30N 59°35' E 024°49'0 0.0
2017-Dec-02 22:00N 59°35' E 024°49'0 0.0
2017-Dec-02 21:30N 59°35' E 024°49'0 0.1
2017-Dec-02 21:00N 59°35' E 024°49'0 0.0
2017-Dec-02 20:30N 59°35' E 024°49'0 0.1
2017-Dec-02 20:00N 59°35' E 024°49'0 0.0
2017-Dec-02 19:30N 59°35' E 024°49'0 0.0
2017-Dec-02 19:00N 59°35' E 024°49'0 0.0
2017-Dec-02 18:27N 59°35' E 024°49'0 0.0
2017-Dec-02 18:00N 59°35' E 024°49'0 0.0
2017-Dec-02 17:30N 59°35' E 024°49'0 0.0
2017-Dec-02 17:00N 59°35' E 024°49'0 0.1
2017-Dec-02 16:30N 59°35' E 024°49'0 0.0
2017-Dec-02 16:00N 59°35' E 024°49'0 0.0
2017-Dec-02 15:30N 59°35' E 024°49'0 0.0
2017-Dec-02 15:00N 59°35' E 024°49'0 0.0
2017-Dec-02 14:30N 59°35' E 024°49'0 0.1
2017-Dec-02 14:00N 59°35' E 024°49'0 0.0
2017-Dec-02 13:30N 59°35' E 024°49'0 0.0
2017-Dec-02 13:00N 59°35' E 024°49'0 0.0
2017-Dec-02 12:27N 59°35' E 024°49'0 0.0
2017-Dec-02 12:00N 59°35' E 024°49'0 0.2
2017-Dec-02 11:30N 59°35' E 024°49'0 0.1
2017-Dec-02 11:00N 59°35' E 024°49'0 0.0
2017-Dec-02 10:30N 59°35' E 024°49'1 1.2
2017-Dec-02 10:01N 59°35' E 024°50'713.2
2017-Dec-02 09:31N 59°37' E 024°38'816.1
2017-Dec-02 09:01N 59°39' E 024°23'816.5
2017-Dec-02 08:30N 59°39' E 024°06'816.3
2017-Dec-02 08:00N 59°37' E 023°50'917.5
2017-Dec-02 07:30N 59°35' E 023°34'916.9
2017-Dec-02 07:00N 59°32' E 023°18'816.0
2017-Dec-02 06:30N 59°29' E 023°03'  

Dump ship's entire track history